Time,TemperatureF,DewpointF,PressureIn,WindDirection,WindDirectionDegrees,WindSpeedMPH,WindSpeedGustMPH,Humidity,HourlyPrecipIn,Conditions,Clouds,dailyrainin,SolarRadiationWatts/m^2,SoftwareType,DateUTC
2013-11-30 00:00:00,26.0,9.5,30.34,NW,313,0.0,0.0,49,0.00,,-RA,0.00,0.00,VWS V14.01,2013-11-30 05:00:00,
2013-11-30 00:01:00,24.1,7.3,30.60,NNW,332,3.0,5.0,48,0.00,,-RA,0.00,0.00,VWS V14.01,2013-11-30 05:01:00,
2013-11-30 00:05:00,26.0,9.9,30.34,NW,313,0.0,0.0,50,0.00,,-RA,0.00,0.00,VWS V14.01,2013-11-30 05:05:00,
2013-11-30 00:10:00,26.1,10.0,30.34,NW,313,0.0,0.0,50,0.00,,-RA,0.00,0.00,VWS V14.01,2013-11-30 05:10:00,
2013-11-30 00:15:00,26.1,10.0,30.34,NW,313,0.0,0.0,50,0.00,,-RA,0.00,0.00,VWS V14.01,2013-11-30 05:15:00,
2013-11-30 00:20:00,26.3,10.6,30.34,NW,313,0.0,0.0,51,0.00,,-RA,0.00,0.00,VWS V14.01,2013-11-30 05:20:00,
2013-11-30 00:25:00,26.3,10.6,30.34,NW,313,0.0,0.0,51,0.00,,-RA,0.00,0.00,VWS V14.01,2013-11-30 05:25:00,
2013-11-30 00:30:00,26.1,10.0,30.34,NW,313,0.0,0.0,50,0.00,,-RA,0.00,0.00,VWS V14.01,2013-11-30 05:30:00,
2013-11-30 00:35:00,26.1,10.0,30.34,NW,313,0.0,0.0,50,0.00,,-RA,0.00,0.00,VWS V14.01,2013-11-30 05:35:00,
2013-11-30 00:40:00,26.1,10.5,30.34,NW,313,0.0,0.0,51,0.00,,-RA,0.00,0.00,VWS V14.01,2013-11-30 05:40:00,
2013-11-30 00:45:00,26.1,10.5,30.33,NW,313,0.0,0.0,51,0.00,,-RA,0.00,0.00,VWS V14.01,2013-11-30 05:45:00,
2013-11-30 00:50:00,26.1,10.9,30.33,NW,313,0.0,0.0,52,0.00,,-RA,0.00,0.00,VWS V14.01,2013-11-30 05:50:00,
2013-11-30 00:55:00,26.1,11.3,30.33,NW,313,0.0,0.0,53,0.00,,-RA,0.00,0.00,VWS V14.01,2013-11-30 05:55:00,
2013-11-30 01:00:00,26.1,11.3,30.33,NW,313,0.0,0.0,53,0.00,,-RA,0.00,0.00,VWS V14.01,2013-11-30 06:00:00,
2013-11-30 01:05:00,26.1,11.3,30.33,NW,313,0.0,0.0,53,0.00,,-RA,0.00,0.00,VWS V14.01,2013-11-30 06:05:00,
2013-11-30 01:10:00,26.1,11.7,30.33,NW,313,0.0,0.0,54,0.00,,-RA,0.00,0.00,VWS V14.01,2013-11-30 06:10:00,
2013-11-30 01:15:00,26.1,11.7,30.33,NW,313,0.0,0.0,54,0.00,,-RA,0.00,0.00,VWS V14.01,2013-11-30 06:15:00,
2013-11-30 01:20:00,26.1,12.2,30.33,NW,313,0.0,0.0,55,0.00,,-RA,0.00,0.00,VWS V14.01,2013-11-30 06:20:00,
2013-11-30 01:25:00,26.1,12.6,30.33,NW,313,0.0,0.0,56,0.00,,-RA,0.00,0.00,VWS V14.01,2013-11-30 06:25:00,
2013-11-30 01:30:00,26.0,12.1,30.33,NW,313,0.0,0.0,55,0.00,,-RA,0.00,0.00,VWS V14.01,2013-11-30 06:30:00,
2013-11-30 01:31:00,23.9,7.5,30.60,NNW,332,3.0,3.0,49,0.00,,-RA,0.00,0.00,VWS V14.01,2013-11-30 06:31:00,
2013-11-30 01:35:00,26.1,12.2,30.33,NW,313,0.0,0.0,55,0.00,,-RA,0.00,0.00,VWS V14.01,2013-11-30 06:35:00,
2013-11-30 01:40:00,26.1,12.2,30.33,NW,313,0.0,0.0,55,0.00,,-RA,0.00,0.00,VWS V14.01,2013-11-30 06:40:00,
2013-11-30 01:45:00,26.1,12.2,30.33,NW,313,0.0,0.0,55,0.00,,-RA,0.00,0.00,VWS V14.01,2013-11-30 06:45:00,
2013-11-30 01:50:00,26.1,12.6,30.33,NW,313,0.0,0.0,56,0.00,,-RA,0.00,0.00,VWS V14.01,2013-11-30 06:50:00,
2013-11-30 01:55:00,26.1,12.6,30.33,NW,313,0.0,0.0,56,0.00,,-RA,0.00,0.00,VWS V14.01,2013-11-30 06:55:00,
2013-11-30 02:00:00,26.1,12.6,30.33,NW,313,0.0,0.0,56,0.00,,-RA,0.00,0.00,VWS V14.01,2013-11-30 07:00:00,
2013-11-30 02:05:00,26.1,12.6,30.33,NW,313,0.0,0.0,56,0.00,,-RA,0.00,0.00,VWS V14.01,2013-11-30 07:05:00,
2013-11-30 02:10:00,26.1,12.6,30.33,NW,313,0.0,0.0,56,0.00,,-RA,0.00,0.00,VWS V14.01,2013-11-30 07:10:00,
2013-11-30 02:15:00,26.0,12.5,30.34,NW,313,0.0,0.0,56,0.00,,-RA,0.00,0.00,VWS V14.01,2013-11-30 07:15:00,
2013-11-30 02:20:00,26.0,12.9,30.34,NW,313,1.0,3.0,57,0.00,,-RA,0.00,0.00,VWS V14.01,2013-11-30 07:20:00,
2013-11-30 02:25:00,26.0,12.9,30.34,NW,313,1.0,1.0,57,0.00,,-RA,0.00,0.00,VWS V14.01,2013-11-30 07:25:00,
2013-11-30 02:30:00,26.0,13.3,30.34,NW,313,0.0,0.0,58,0.00,,-RA,0.00,0.00,VWS V14.01,2013-11-30 07:30:00,
2013-11-30 02:35:00,26.0,13.3,30.34,NW,313,0.0,0.0,58,0.00,,-RA,0.00,0.00,VWS V14.01,2013-11-30 07:35:00,
2013-11-30 02:40:00,26.0,13.3,30.34,NW,313,0.0,0.0,58,0.00,,-RA,0.00,0.00,VWS V14.01,2013-11-30 07:40:00,
2013-11-30 02:45:00,25.8,13.5,30.34,NW,313,0.0,0.0,59,0.00,,-RA,0.00,0.00,VWS V14.01,2013-11-30 07:45:00,
2013-11-30 02:50:00,25.8,13.5,30.34,NW,313,0.0,0.0,59,0.00,,-RA,0.00,0.00,VWS V14.01,2013-11-30 07:50:00,
2013-11-30 02:55:00,26.0,14.0,30.34,NW,313,0.0,0.0,60,0.00,,-RA,0.00,0.00,VWS V14.01,2013-11-30 07:55:00,
2013-11-30 03:03:00,21.0,5.3,30.60,North,0,0.0,5.0,50,0.00,,-RA,0.00,0.00,VWS V14.01,2013-11-30 08:03:00,
2013-11-30 03:05:00,25.8,13.9,30.34,NW,313,0.0,0.0,60,0.00,,-RA,0.00,0.00,VWS V14.01,2013-11-30 08:05:00,
2013-11-30 03:08:00,21.6,5.4,30.60,North,0,0.0,2.0,49,0.00,,-RA,0.00,0.00,VWS V14.01,2013-11-30 08:08:00,
2013-11-30 03:10:00,25.8,13.9,30.34,NW,313,0.0,0.0,60,0.00,,-RA,0.00,0.00,VWS V14.01,2013-11-30 08:10:00,
2013-11-30 03:13:00,21.4,5.2,30.60,North,0,1.0,2.0,49,0.00,,-RA,0.00,0.00,VWS V14.01,2013-11-30 08:13:00,
2013-11-30 03:15:00,25.8,13.9,30.34,NW,313,0.0,0.0,60,0.00,,-RA,0.00,0.00,VWS V14.01,2013-11-30 08:15:00,
2013-11-30 03:18:00,21.3,5.1,30.60,North,0,0.0,2.0,49,0.00,,-RA,0.00,0.00,VWS V14.01,2013-11-30 08:18:00,
2013-11-30 03:20:00,25.8,13.5,30.34,NW,313,0.0,0.0,59,0.00,,-RA,0.00,0.00,VWS V14.01,2013-11-30 08:20:00,
2013-11-30 03:23:00,21.1,4.9,30.60,North,0,1.0,3.0,49,0.00,,-RA,0.00,0.00,VWS V14.01,2013-11-30 08:23:00,
2013-11-30 03:25:00,25.8,13.5,30.34,NW,313,0.0,0.0,59,0.00,,-RA,0.00,0.00,VWS V14.01,2013-11-30 08:25:00,
2013-11-30 03:28:00,21.3,5.6,30.60,North,0,5.0,7.0,50,0.00,,-RA,0.00,0.00,VWS V14.01,2013-11-30 08:28:00,
2013-11-30 03:30:00,25.8,13.5,30.34,NW,313,0.0,0.0,59,0.00,,-RA,0.00,0.00,VWS V14.01,2013-11-30 08:30:00,
2013-11-30 03:33:00,21.6,6.3,30.60,North,0,5.0,7.0,51,0.00,,-RA,0.00,0.00,VWS V14.01,2013-11-30 08:33:00,
2013-11-30 03:35:00,25.8,13.5,30.34,NW,313,0.0,0.0,59,0.00,,-RA,0.00,0.00,VWS V14.01,2013-11-30 08:35:00,
2013-11-30 03:38:00,21.3,6.4,30.60,North,0,2.0,3.0,52,0.00,,-RA,0.00,0.00,VWS V14.01,2013-11-30 08:38:00,
2013-11-30 03:40:00,25.8,13.5,30.34,NW,313,0.0,0.0,59,0.00,,-RA,0.00,0.00,VWS V14.01,2013-11-30 08:40:00,
2013-11-30 03:43:00,21.1,6.7,30.60,North,0,3.0,3.0,53,0.00,,-RA,0.00,0.00,VWS V14.01,2013-11-30 08:43:00,
2013-11-30 03:45:00,25.8,13.5,30.34,NW,313,0.0,0.0,59,0.00,,-RA,0.00,0.00,VWS V14.01,2013-11-30 08:45:00,
2013-11-30 03:48:00,21.0,6.6,30.60,North,0,0.0,0.0,53,0.00,,-RA,0.00,0.00,VWS V14.01,2013-11-30 08:48:00,
2013-11-30 03:50:00,25.8,13.5,30.34,NW,313,0.0,0.0,59,0.00,,-RA,0.00,0.00,VWS V14.01,2013-11-30 08:50:00,
2013-11-30 03:53:00,20.5,6.1,30.60,North,0,0.0,0.0,53,0.00,,-RA,0.00,0.00,VWS V14.01,2013-11-30 08:53:00,
2013-11-30 03:55:00,25.8,13.5,30.34,NW,313,0.0,0.0,59,0.00,,-RA,0.00,0.00,VWS V14.01,2013-11-30 08:55:00,
2013-11-30 03:58:00,20.2,5.8,30.60,North,0,0.0,0.0,53,0.00,,-RA,0.00,0.00,VWS V14.01,2013-11-30 08:58:00,
2013-11-30 04:00:00,25.8,13.5,30.34,NW,313,0.0,0.0,59,0.00,,-RA,0.00,0.00,VWS V14.01,2013-11-30 09:00:00,
2013-11-30 04:03:00,19.7,5.8,30.59,North,0,0.0,0.0,54,0.00,,-RA,0.00,0.00,VWS V14.01,2013-11-30 09:03:00,
2013-11-30 04:04:00,19.7,5.8,30.59,North,0,0.0,0.0,54,0.00,,-RA,0.00,0.00,VWS V14.01,2013-11-30 09:04:00,
2013-11-30 04:05:00,25.8,13.5,30.34,NW,313,0.0,0.0,59,0.00,,-RA,0.00,0.00,VWS V14.01,2013-11-30 09:05:00,
2013-11-30 04:09:00,19.4,5.9,30.59,North,0,0.0,0.0,55,0.00,,-RA,0.00,0.00,VWS V14.01,2013-11-30 09:09:00,
2013-11-30 04:10:00,25.8,13.5,30.34,NW,313,0.0,0.0,59,0.00,,-RA,0.00,0.00,VWS V14.01,2013-11-30 09:10:00,
2013-11-30 04:14:00,19.7,6.6,30.59,North,0,2.0,3.0,56,0.00,,-RA,0.00,0.00,VWS V14.01,2013-11-30 09:14:00,
2013-11-30 04:15:00,25.7,13.8,30.34,NW,313,0.0,0.0,60,0.00,,-RA,0.00,0.00,VWS V14.01,2013-11-30 09:15:00,
2013-11-30 04:19:00,19.9,6.8,30.59,North,0,0.0,0.0,56,0.00,,-RA,0.00,0.00,VWS V14.01,2013-11-30 09:19:00,
2013-11-30 04:20:00,25.7,13.8,30.34,NW,313,0.0,0.0,60,0.00,,-RA,0.00,0.00,VWS V14.01,2013-11-30 09:20:00,
2013-11-30 04:24:00,19.9,6.3,30.59,North,0,2.0,3.0,55,0.00,,-RA,0.00,0.00,VWS V14.01,2013-11-30 09:24:00,
2013-11-30 04:25:00,25.7,13.8,30.34,NW,313,0.0,0.0,60,0.00,,-RA,0.00,0.00,VWS V14.01,2013-11-30 09:25:00,
2013-11-30 04:29:00,20.2,7.0,30.59,North,0,2.0,4.0,56,0.00,,-RA,0.00,0.00,VWS V14.01,2013-11-30 09:29:00,
2013-11-30 04:30:00,25.7,13.8,30.35,NW,313,0.0,0.0,60,0.00,,-RA,0.00,0.00,VWS V14.01,2013-11-30 09:30:00,
2013-11-30 04:34:00,20.2,7.8,30.59,North,0,1.0,4.0,58,0.00,,-RA,0.00,0.00,VWS V14.01,2013-11-30 09:34:00,
2013-11-30 04:35:00,25.6,13.7,30.35,NW,313,0.0,0.0,60,0.00,,-RA,0.00,0.00,VWS V14.01,2013-11-30 09:35:00,
2013-11-30 04:39:00,20.0,8.0,30.59,North,0,1.0,3.0,59,0.00,,-RA,0.00,0.00,VWS V14.01,2013-11-30 09:39:00,
2013-11-30 04:40:00,25.6,13.7,30.35,NW,313,0.0,0.0,60,0.00,,-RA,0.00,0.00,VWS V14.01,2013-11-30 09:40:00,
2013-11-30 04:44:00,19.7,7.3,30.59,North,0,5.0,6.0,58,0.00,,-RA,0.00,0.00,VWS V14.01,2013-11-30 09:44:00,
2013-11-30 04:45:00,25.6,13.7,30.35,NW,313,0.0,0.0,60,0.00,,-RA,0.00,0.00,VWS V14.01,2013-11-30 09:45:00,
2013-11-30 04:49:00,19.9,7.9,30.59,North,0,3.0,6.0,59,0.00,,-RA,0.00,0.00,VWS V14.01,2013-11-30 09:49:00,
2013-11-30 04:50:00,25.6,14.0,30.35,NW,313,0.0,0.0,61,0.00,,-RA,0.00,0.00,VWS V14.01,2013-11-30 09:50:00,
2013-11-30 04:54:00,19.7,7.7,30.59,North,0,3.0,5.0,59,0.00,,-RA,0.00,0.00,VWS V14.01,2013-11-30 09:54:00,
2013-11-30 04:55:00,25.4,13.8,30.35,NW,313,0.0,0.0,61,0.00,,-RA,0.00,0.00,VWS V14.01,2013-11-30 09:55:00,
2013-11-30 04:59:00,19.5,7.5,30.59,North,1,6.0,6.0,59,0.00,,-RA,0.00,0.00,VWS V14.01,2013-11-30 09:59:00,
2013-11-30 05:00:00,25.4,13.8,30.36,NW,313,0.0,0.0,61,0.00,,-RA,0.00,0.00,VWS V14.01,2013-11-30 10:00:00,
2013-11-30 05:04:00,24.2,8.3,30.60,NNW,332,5.0,6.0,50,0.00,,-RA,0.00,0.00,VWS V14.01,2013-11-30 10:04:00,
2013-11-30 05:05:00,25.3,13.8,30.36,NW,313,0.0,0.0,61,0.00,,-RA,0.00,0.00,VWS V14.01,2013-11-30 10:05:00,
2013-11-30 05:09:00,19.1,7.1,30.59,North,0,2.0,5.0,59,0.00,,-RA,0.00,0.00,VWS V14.01,2013-11-30 10:09:00,
2013-11-30 05:10:00,25.3,13.8,30.36,NW,313,0.0,0.0,61,0.00,,-RA,0.00,0.00,VWS V14.01,2013-11-30 10:10:00,
2013-11-30 05:14:00,18.8,6.9,30.59,North,0,0.0,5.0,59,0.00,,-RA,0.00,0.00,VWS V14.01,2013-11-30 10:14:00,
2013-11-30 05:15:00,25.3,13.8,30.36,NW,313,0.0,0.0,61,0.00,,-RA,0.00,0.00,VWS V14.01,2013-11-30 10:15:00,
2013-11-30 05:19:00,18.8,6.9,30.60,North,0,2.0,2.0,59,0.00,,-RA,0.00,0.00,VWS V14.01,2013-11-30 10:19:00,
2013-11-30 05:20:00,25.3,13.8,30.36,NW,313,0.0,0.0,61,0.00,,-RA,0.00,0.00,VWS V14.01,2013-11-30 10:20:00,
2013-11-30 05:24:00,18.8,6.5,30.60,North,1,4.0,6.0,58,0.00,,-RA,0.00,0.00,VWS V14.01,2013-11-30 10:24:00,
2013-11-30 05:25:00,25.3,13.8,30.36,NW,313,0.0,0.0,61,0.00,,-RA,0.00,0.00,VWS V14.01,2013-11-30 10:25:00,
2013-11-30 05:29:00,19.1,7.1,30.60,North,1,3.0,5.0,59,0.00,,-RA,0.00,0.00,VWS V14.01,2013-11-30 10:29:00,
2013-11-30 05:30:00,25.3,13.8,30.36,NW,313,0.0,0.0,61,0.00,,-RA,0.00,0.00,VWS V14.01,2013-11-30 10:30:00,
2013-11-30 05:34:00,19.1,7.1,30.60,North,1,3.0,5.0,59,0.00,,-RA,0.00,0.00,VWS V14.01,2013-11-30 10:34:00,
2013-11-30 05:35:00,25.3,13.4,30.36,NW,313,0.0,0.0,60,0.00,,-RA,0.00,0.00,VWS V14.01,2013-11-30 10:35:00,
2013-11-30 05:39:00,19.1,7.5,30.60,North,1,2.0,4.0,60,0.00,,-RA,0.00,0.00,VWS V14.01,2013-11-30 10:39:00,
2013-11-30 05:40:00,25.3,13.4,30.36,NW,313,0.0,0.0,60,0.00,,-RA,0.00,0.00,VWS V14.01,2013-11-30 10:40:00,
2013-11-30 05:44:00,18.8,7.2,30.60,North,1,0.0,2.0,60,0.00,,-RA,0.00,0.00,VWS V14.01,2013-11-30 10:44:00,
2013-11-30 05:45:00,25.3,13.4,30.37,NW,313,0.0,0.0,60,0.00,,-RA,0.00,0.00,VWS V14.01,2013-11-30 10:45:00,
2013-11-30 05:49:00,18.8,7.6,30.60,North,1,1.0,3.0,61,0.00,,-RA,0.00,0.00,VWS V14.01,2013-11-30 10:49:00,
2013-11-30 05:50:00,25.1,13.2,30.37,NW,313,0.0,0.0,60,0.00,,-RA,0.00,0.00,VWS V14.01,2013-11-30 10:50:00,
2013-11-30 05:54:00,18.8,7.9,30.60,North,1,2.0,2.0,62,0.00,,-RA,0.00,0.00,VWS V14.01,2013-11-30 10:54:00,
2013-11-30 05:55:00,25.1,13.2,30.37,NW,313,0.0,0.0,60,0.00,,-RA,0.00,0.00,VWS V14.01,2013-11-30 10:55:00,
2013-11-30 05:59:00,18.6,7.8,30.60,North,1,1.0,3.0,62,0.00,,-RA,0.00,0.00,VWS V14.01,2013-11-30 10:59:00,
2013-11-30 06:00:00,25.1,13.2,30.37,NW,313,0.0,0.0,60,0.00,,-RA,0.00,0.00,VWS V14.01,2013-11-30 11:00:00,
2013-11-30 06:05:00,25.1,13.2,30.37,NW,313,0.0,0.0,60,0.00,,-RA,0.00,0.00,VWS V14.01,2013-11-30 11:05:00,
2013-11-30 06:06:00,18.7,7.9,30.60,North,0,1.0,3.0,62,0.00,,-RA,0.00,0.00,VWS V14.01,2013-11-30 11:06:00,
2013-11-30 06:10:00,25.1,13.6,30.37,NW,313,0.0,0.0,61,0.00,,-RA,0.00,0.00,VWS V14.01,2013-11-30 11:10:00,
2013-11-30 06:11:00,17.7,6.6,30.60,North,1,0.0,0.0,61,0.00,,-RA,0.00,0.00,VWS V14.01,2013-11-30 11:11:00,
2013-11-30 06:15:00,25.1,13.2,30.38,NW,313,0.0,0.0,60,0.00,,-RA,0.00,0.00,VWS V14.01,2013-11-30 11:15:00,
2013-11-30 06:16:00,17.5,6.4,30.60,North,1,0.0,0.0,61,0.00,,-RA,0.00,0.00,VWS V14.01,2013-11-30 11:16:00,
2013-11-30 06:20:00,25.3,13.4,30.38,NW,313,0.0,0.0,60,0.00,,-RA,0.00,0.00,VWS V14.01,2013-11-30 11:20:00,
2013-11-30 06:21:00,17.5,6.4,30.60,North,1,2.0,2.0,61,0.00,,-RA,0.00,0.00,VWS V14.01,2013-11-30 11:21:00,
2013-11-30 06:25:00,25.3,13.4,30.38,NW,313,0.0,0.0,60,0.00,,-RA,0.00,0.00,VWS V14.01,2013-11-30 11:25:00,
2013-11-30 06:26:00,17.3,6.2,30.60,North,1,0.0,0.0,61,0.00,,-RA,0.00,0.00,VWS V14.01,2013-11-30 11:26:00,
2013-11-30 06:30:00,25.3,13.4,30.38,NW,313,0.0,0.0,60,0.00,,-RA,0.00,0.00,VWS V14.01,2013-11-30 11:30:00,
2013-11-30 06:31:00,17.2,6.1,30.60,North,1,0.0,2.0,61,0.00,,-RA,0.00,0.00,VWS V14.01,2013-11-30 11:31:00,
2013-11-30 06:35:00,25.4,13.5,30.38,NW,313,0.0,0.0,60,0.00,,-RA,0.00,0.00,VWS V14.01,2013-11-30 11:35:00,
2013-11-30 06:36:00,17.3,5.8,30.60,North,1,0.0,0.0,60,0.00,,-RA,0.00,0.00,VWS V14.01,2013-11-30 11:36:00,
2013-11-30 06:40:00,25.4,13.5,30.38,NW,313,0.0,0.0,60,0.00,,-RA,0.00,0.00,VWS V14.01,2013-11-30 11:40:00,
2013-11-30 06:41:00,17.2,5.7,30.60,North,1,0.0,0.0,60,0.00,,-RA,0.00,0.00,VWS V14.01,2013-11-30 11:41:00,
2013-11-30 06:45:00,25.4,13.5,30.39,NW,313,0.0,0.0,60,0.00,,-RA,0.00,0.00,VWS V14.01,2013-11-30 11:45:00,
2013-11-30 06:46:00,17.0,5.5,30.60,North,1,0.0,0.0,60,0.00,,-RA,0.00,0.00,VWS V14.01,2013-11-30 11:46:00,
2013-11-30 06:50:00,25.3,13.4,30.39,NW,313,0.0,0.0,60,0.00,,-RA,0.00,0.00,VWS V14.01,2013-11-30 11:50:00,
2013-11-30 06:51:00,17.0,5.9,30.60,North,1,2.0,3.0,61,0.00,,-RA,0.00,0.00,VWS V14.01,2013-11-30 11:51:00,
2013-11-30 06:55:00,25.3,13.4,30.39,NW,313,0.0,0.0,60,0.00,,-RA,0.00,0.00,VWS V14.01,2013-11-30 11:55:00,
2013-11-30 06:56:00,17.3,6.2,30.60,North,1,2.0,3.0,61,0.00,,-RA,0.00,0.00,VWS V14.01,2013-11-30 11:56:00,
2013-11-30 07:00:00,25.1,13.2,30.40,NW,313,0.0,0.0,60,0.00,,-RA,0.00,0.00,VWS V14.01,2013-11-30 12:00:00,
2013-11-30 07:01:00,17.7,6.6,30.60,North,1,2.0,3.0,61,0.00,,-RA,0.00,0.00,VWS V14.01,2013-11-30 12:01:00,
2013-11-30 07:05:00,25.1,13.2,30.40,NW,313,0.0,0.0,60,0.00,,-RA,0.00,0.00,VWS V14.01,2013-11-30 12:05:00,
2013-11-30 07:06:00,17.8,6.3,30.60,North,1,2.0,3.0,60,0.00,,-RA,0.00,0.00,VWS V14.01,2013-11-30 12:06:00,
2013-11-30 07:10:00,25.1,13.2,30.40,NW,313,0.0,0.0,60,0.00,,-RA,0.00,0.00,VWS V14.01,2013-11-30 12:10:00,
2013-11-30 07:11:00,17.8,6.3,30.60,North,1,0.0,3.0,60,0.00,,-RA,0.00,0.00,VWS V14.01,2013-11-30 12:11:00,
2013-11-30 07:15:00,25.0,13.1,30.41,NW,313,0.0,0.0,60,0.00,,-RA,0.00,7.00,VWS V14.01,2013-11-30 12:15:00,
2013-11-30 07:16:00,17.8,5.9,30.60,North,1,0.0,0.0,59,0.00,,-RA,0.00,5.00,VWS V14.01,2013-11-30 12:16:00,
2013-11-30 07:20:00,25.0,13.5,30.41,NW,313,0.0,0.0,61,0.00,,-RA,0.00,11.00,VWS V14.01,2013-11-30 12:20:00,
2013-11-30 07:21:00,17.8,5.9,30.60,North,1,0.0,0.0,59,0.00,,-RA,0.00,5.00,VWS V14.01,2013-11-30 12:21:00,
2013-11-30 07:25:00,25.0,13.1,30.41,NW,313,0.0,0.0,60,0.00,,-RA,0.00,16.00,VWS V14.01,2013-11-30 12:25:00,
2013-11-30 07:26:00,17.7,5.4,30.60,North,1,0.0,0.0,58,0.00,,-RA,0.00,7.00,VWS V14.01,2013-11-30 12:26:00,
2013-11-30 07:30:00,25.1,12.8,30.41,NW,313,0.0,0.0,59,0.00,,-RA,0.00,26.00,VWS V14.01,2013-11-30 12:30:00,
2013-11-30 07:31:00,17.5,5.3,30.60,North,1,0.0,0.0,58,0.00,,-RA,0.00,9.00,VWS V14.01,2013-11-30 12:31:00,
2013-11-30 07:35:00,25.1,12.8,30.41,NW,313,0.0,0.0,59,0.00,,-RA,0.00,30.00,VWS V14.01,2013-11-30 12:35:00,
2013-11-30 07:36:00,17.7,5.4,30.61,North,1,0.0,3.0,58,0.00,,-RA,0.00,16.00,VWS V14.01,2013-11-30 12:36:00,
2013-11-30 07:40:00,25.3,12.6,30.41,NW,313,0.0,0.0,58,0.00,,-RA,0.00,37.00,VWS V14.01,2013-11-30 12:40:00,
2013-11-30 07:41:00,18.0,6.1,30.61,North,1,2.0,2.0,59,0.00,,-RA,0.00,33.00,VWS V14.01,2013-11-30 12:41:00,
2013-11-30 07:45:00,25.4,12.3,30.42,NW,313,0.0,0.0,57,0.00,,-RA,0.00,42.00,VWS V14.01,2013-11-30 12:45:00,
2013-11-30 07:46:00,18.6,7.0,30.61,North,1,1.0,3.0,60,0.00,,-RA,0.00,40.00,VWS V14.01,2013-11-30 12:46:00,
2013-11-30 07:50:00,25.6,12.5,30.42,NW,313,0.0,0.0,57,0.00,,-RA,0.00,48.00,VWS V14.01,2013-11-30 12:50:00,
2013-11-30 07:51:00,18.9,7.3,30.61,North,1,2.0,4.0,60,0.00,,-RA,0.00,42.00,VWS V14.01,2013-11-30 12:51:00,
2013-11-30 07:55:00,25.8,12.3,30.42,NW,313,0.0,0.0,56,0.00,,-RA,0.00,56.00,VWS V14.01,2013-11-30 12:55:00,
2013-11-30 07:56:00,19.1,7.5,30.61,North,1,5.0,5.0,60,0.00,,-RA,0.00,49.00,VWS V14.01,2013-11-30 12:56:00,
2013-11-30 08:00:00,26.0,12.5,30.42,NW,313,0.0,0.0,56,0.00,,-RA,0.00,65.00,VWS V14.01,2013-11-30 13:00:00,
2013-11-30 08:01:00,19.2,7.6,30.61,North,1,4.0,4.0,60,0.00,,-RA,0.00,55.00,VWS V14.01,2013-11-30 13:01:00,
2013-11-30 08:05:00,26.1,12.6,30.42,NW,313,0.0,0.0,56,0.00,,-RA,0.00,65.00,VWS V14.01,2013-11-30 13:05:00,
2013-11-30 08:06:00,19.2,7.6,30.61,North,1,1.0,3.0,60,0.00,,-RA,0.00,65.00,VWS V14.01,2013-11-30 13:06:00,
2013-11-30 08:10:00,26.3,12.3,30.42,NW,313,0.0,0.0,55,0.00,,-RA,0.00,63.00,VWS V14.01,2013-11-30 13:10:00,
2013-11-30 08:11:00,19.5,7.5,30.61,North,1,1.0,3.0,59,0.00,,-RA,0.00,95.00,VWS V14.01,2013-11-30 13:11:00,
2013-11-30 08:15:00,26.3,11.9,30.43,NW,313,0.0,0.0,54,0.00,,-RA,0.00,81.00,VWS V14.01,2013-11-30 13:15:00,
2013-11-30 08:20:00,26.4,12.0,30.43,NW,313,0.0,0.0,54,0.00,,-RA,0.00,81.00,VWS V14.01,2013-11-30 13:20:00,
2013-11-30 08:25:00,18.7,7.9,30.60,North,0,1.0,3.0,62,0.00,,-RA,0.00,0.00,VWS V14.01,2013-11-30 13:25:00,
2013-11-30 08:30:00,20.8,7.2,30.61,NNE,14,7.0,8.0,55,0.00,,-RA,0.00,174.00,VWS V14.01,2013-11-30 13:30:00,
2013-11-30 08:35:00,21.1,6.7,30.61,NNE,25,5.0,5.0,53,0.00,,-RA,0.00,179.00,VWS V14.01,2013-11-30 13:35:00,
2013-11-30 08:40:00,21.4,6.5,30.61,North,10,2.0,2.0,52,0.00,,-RA,0.00,190.00,VWS V14.01,2013-11-30 13:40:00,
2013-11-30 08:45:00,21.6,6.3,30.61,NNE,13,5.0,8.0,51,0.00,,-RA,0.00,202.00,VWS V14.01,2013-11-30 13:45:00,
2013-11-30 08:50:00,21.6,6.3,30.61,NE,52,4.0,13.0,51,0.00,,-RA,0.00,218.00,VWS V14.01,2013-11-30 13:50:00,
2013-11-30 08:55:00,21.8,6.5,30.61,NNE,20,0.0,5.0,51,0.00,,-RA,0.00,230.00,VWS V14.01,2013-11-30 13:55:00,
2013-11-30 09:00:00,22.2,6.8,30.61,NNE,20,7.0,7.0,51,0.00,,-RA,0.00,234.00,VWS V14.01,2013-11-30 14:00:00,
2013-11-30 09:05:00,22.4,6.2,30.61,NE,45,3.0,6.0,49,0.00,,-RA,0.00,236.00,VWS V14.01,2013-11-30 14:05:00,
2013-11-30 09:10:00,22.5,6.2,30.61,NE,35,1.0,7.0,49,0.00,,-RA,0.00,232.00,VWS V14.01,2013-11-30 14:10:00,
2013-11-30 09:15:00,22.9,6.6,30.61,NNE,17,2.0,6.0,49,0.00,,-RA,0.00,266.00,VWS V14.01,2013-11-30 14:15:00,
2013-11-30 09:20:00,22.9,6.6,30.60,NNE,17,8.0,8.0,49,0.00,,-RA,0.00,274.00,VWS V14.01,2013-11-30 14:20:00,
2013-11-30 09:25:00,23.0,7.1,30.60,NNE,20,2.0,7.0,50,0.00,,-RA,0.00,296.00,VWS V14.01,2013-11-30 14:25:00,
2013-11-30 09:30:00,23.2,6.4,30.60,NNE,20,6.0,6.0,48,0.00,,-RA,0.00,306.00,VWS V14.01,2013-11-30 14:30:00,
2013-11-30 09:35:00,23.5,6.7,30.60,ENE,62,3.0,5.0,48,0.00,,-RA,0.00,313.00,VWS V14.01,2013-11-30 14:35:00,
2013-11-30 09:40:00,23.8,6.1,30.60,NNE,25,5.0,6.0,46,0.00,,-RA,0.00,324.00,VWS V14.01,2013-11-30 14:40:00,
2013-11-30 09:45:00,24.1,6.3,30.60,NE,52,5.0,6.0,46,0.00,,-RA,0.00,334.00,VWS V14.01,2013-11-30 14:45:00,
2013-11-30 09:50:00,24.7,6.4,30.60,East,95,1.0,6.0,45,0.00,,-RA,0.00,341.00,VWS V14.01,2013-11-30 14:50:00,
2013-11-30 09:55:00,25.4,5.5,30.60,East,88,0.0,5.0,42,0.00,,-RA,0.00,345.00,VWS V14.01,2013-11-30 14:55:00,
2013-11-30 10:00:00,25.8,5.9,30.60,East,89,0.0,0.0,42,0.00,,-RA,0.00,354.00,VWS V14.01,2013-11-30 15:00:00,
2013-11-30 10:05:00,26.0,4.4,30.60,ENE,59,3.0,6.0,39,0.00,,-RA,0.00,354.00,VWS V14.01,2013-11-30 15:05:00,
2013-11-30 10:10:00,26.0,3.9,30.60,ENE,58,1.0,5.0,38,0.00,,-RA,0.00,368.00,VWS V14.01,2013-11-30 15:10:00,
2013-11-30 10:15:00,25.7,2.5,30.60,NE,54,3.0,7.0,36,0.00,,-RA,0.00,389.00,VWS V14.01,2013-11-30 15:15:00,
2013-11-30 10:20:00,25.6,3.0,30.59,NE,52,6.0,6.0,37,0.00,,-RA,0.00,384.00,VWS V14.01,2013-11-30 15:20:00,
2013-11-30 10:25:00,25.7,3.0,30.59,NE,49,3.0,5.0,37,0.00,,-RA,0.00,385.00,VWS V14.01,2013-11-30 15:25:00,
2013-11-30 10:30:00,26.1,4.0,30.59,NE,49,1.0,5.0,38,0.00,,-RA,0.00,387.00,VWS V14.01,2013-11-30 15:30:00,
2013-11-30 10:35:00,26.9,4.7,30.59,NE,49,3.0,5.0,38,0.00,,-RA,0.00,398.00,VWS V14.01,2013-11-30 15:35:00,
2013-11-30 10:40:00,27.0,5.3,30.59,NE,45,1.0,7.0,39,0.00,,-RA,0.00,392.00,VWS V14.01,2013-11-30 15:40:00,
2013-11-30 10:45:00,27.6,3.5,30.59,East,95,4.0,5.0,35,0.00,,-RA,0.00,352.00,VWS V14.01,2013-11-30 15:45:00,
2013-11-30 10:50:00,27.8,3.1,30.58,East,95,0.0,2.0,34,0.00,,-RA,0.00,368.00,VWS V14.01,2013-11-30 15:50:00,
2013-11-30 10:55:00,27.9,4.4,30.58,East,82,0.0,0.0,36,0.00,,-RA,0.00,384.00,VWS V14.01,2013-11-30 15:55:00,
2013-11-30 11:00:00,28.2,4.1,30.58,East,82,0.0,3.0,35,0.00,,-RA,0.00,373.00,VWS V14.01,2013-11-30 16:00:00,
2013-11-30 11:05:00,28.5,3.7,30.57,ESE,103,3.0,6.0,34,0.00,,-RA,0.00,391.00,VWS V14.01,2013-11-30 16:05:00,
2013-11-30 11:10:00,28.5,3.1,30.57,East,82,2.0,7.0,33,0.00,,-RA,0.00,352.00,VWS V14.01,2013-11-30 16:10:00,
2013-11-30 11:15:00,28.7,3.9,30.57,East,92,2.0,4.0,34,0.00,,-RA,0.00,345.00,VWS V14.01,2013-11-30 16:15:00,
2013-11-30 11:20:00,28.8,4.0,30.56,East,86,3.0,3.0,34,0.00,,-RA,0.00,417.00,VWS V14.01,2013-11-30 16:20:00,
2013-11-30 11:25:00,28.2,3.5,30.56,ENE,66,0.0,3.0,34,0.00,,-RA,0.00,364.00,VWS V14.01,2013-11-30 16:25:00,
2013-11-30 11:30:00,28.2,4.7,30.56,ENE,66,2.0,3.0,36,0.00,,-RA,0.00,398.00,VWS V14.01,2013-11-30 16:30:00,
2013-11-30 11:35:00,28.5,6.1,30.56,East,92,1.0,4.0,38,0.00,,-RA,0.00,389.00,VWS V14.01,2013-11-30 16:35:00,
2013-11-30 11:40:00,29.1,6.7,30.56,ESE,107,0.0,4.0,38,0.00,,-RA,0.00,348.00,VWS V14.01,2013-11-30 16:40:00,
2013-11-30 11:45:00,29.4,6.4,30.56,ESE,112,2.0,5.0,37,0.00,,-RA,0.00,361.00,VWS V14.01,2013-11-30 16:45:00,
2013-11-30 11:50:00,29.3,5.7,30.55,East,97,0.0,4.0,36,0.00,,-RA,0.00,345.00,VWS V14.01,2013-11-30 16:50:00,
2013-11-30 11:55:00,29.4,6.9,30.55,SSE,154,2.0,3.0,38,0.00,,-RA,0.00,345.00,VWS V14.01,2013-11-30 16:55:00,
2013-11-30 12:00:00,29.4,6.9,30.55,ESE,123,0.0,2.0,38,0.00,,-RA,0.00,348.00,VWS V14.01,2013-11-30 17:00:00,
2013-11-30 12:05:00,29.3,7.4,30.53,East,99,0.0,2.0,39,0.00,,-RA,0.00,326.00,VWS V14.01,2013-11-30 17:05:00,
2013-11-30 12:10:00,29.7,7.2,30.53,East,95,4.0,4.0,38,0.00,,-RA,0.00,322.00,VWS V14.01,2013-11-30 17:10:00,
2013-11-30 12:15:00,29.7,8.4,30.53,East,95,0.0,1.0,40,0.00,,-RA,0.00,276.00,VWS V14.01,2013-11-30 17:15:00,
2013-11-30 12:20:00,29.5,7.6,30.53,East,95,1.0,2.0,39,0.00,,-RA,0.00,262.00,VWS V14.01,2013-11-30 17:20:00,
2013-11-30 12:25:00,29.1,8.4,30.53,East,96,0.0,0.0,41,0.00,,-RA,0.00,262.00,VWS V14.01,2013-11-30 17:25:00,
2013-11-30 12:30:00,29.5,8.7,30.53,ESE,117,1.0,3.0,41,0.00,,-RA,0.00,278.00,VWS V14.01,2013-11-30 17:30:00,
2013-11-30 12:35:00,29.5,8.7,30.52,ESE,117,0.0,0.0,41,0.00,,-RA,0.00,271.00,VWS V14.01,2013-11-30 17:35:00,
2013-11-30 12:40:00,29.8,9.0,30.52,ESE,117,0.0,3.0,41,0.00,,-RA,0.00,276.00,VWS V14.01,2013-11-30 17:40:00,
2013-11-30 12:45:00,29.8,9.0,30.52,East,99,0.0,4.0,41,0.00,,-RA,0.00,257.00,VWS V14.01,2013-11-30 17:45:00,
2013-11-30 12:50:00,29.5,8.2,30.51,ESE,103,0.0,4.0,40,0.00,,-RA,0.00,252.00,VWS V14.01,2013-11-30 17:50:00,
2013-11-30 12:55:00,29.8,9.0,30.51,SE,143,5.0,5.0,41,0.00,,-RA,0.00,243.00,VWS V14.01,2013-11-30 17:55:00,
2013-11-30 13:00:00,29.5,8.7,30.51,SE,133,0.0,8.0,41,0.00,,-RA,0.00,259.00,VWS V14.01,2013-11-30 18:00:00,
2013-11-30 13:05:00,29.7,9.4,30.50,East,97,0.0,2.0,42,0.00,,-RA,0.00,262.00,VWS V14.01,2013-11-30 18:05:00,
2013-11-30 13:10:00,29.7,9.4,30.50,ESE,120,0.0,6.0,42,0.00,,-RA,0.00,282.00,VWS V14.01,2013-11-30 18:10:00,
2013-11-30 13:15:00,30.0,9.7,30.50,ESE,120,6.0,6.0,42,0.00,,-RA,0.00,276.00,VWS V14.01,2013-11-30 18:15:00,
2013-11-30 13:20:00,29.8,9.5,30.49,ESE,107,0.0,6.0,42,0.00,,-RA,0.00,248.00,VWS V14.01,2013-11-30 18:20:00,
2013-11-30 13:25:00,30.1,9.8,30.49,SSE,154,0.0,5.0,42,0.00,,-RA,0.00,213.00,VWS V14.01,2013-11-30 18:25:00,
2013-11-30 13:30:00,30.1,10.3,30.49,SSE,150,3.0,8.0,43,0.00,,-RA,0.00,216.00,VWS V14.01,2013-11-30 18:30:00,
2013-11-30 13:35:00,30.0,10.7,30.48,SSE,148,0.0,7.0,44,0.00,,-RA,0.00,246.00,VWS V14.01,2013-11-30 18:35:00,
2013-11-30 13:40:00,30.4,10.6,30.48,South,172,2.0,8.0,43,0.00,,-RA,0.00,218.00,VWS V14.01,2013-11-30 18:40:00,
2013-11-30 13:45:00,30.6,11.3,30.48,SSE,162,0.0,0.0,44,0.00,,-RA,0.00,215.00,VWS V14.01,2013-11-30 18:45:00,
2013-11-30 13:50:00,30.6,10.8,30.48,SSE,157,0.0,6.0,43,0.00,,-RA,0.00,211.00,VWS V14.01,2013-11-30 18:50:00,
2013-11-30 13:55:00,30.6,10.8,30.48,SE,136,1.0,3.0,43,0.00,,-RA,0.00,211.00,VWS V14.01,2013-11-30 18:55:00,
2013-11-30 14:00:00,30.6,10.8,30.48,ESE,114,2.0,7.0,43,0.00,,-RA,0.00,206.00,VWS V14.01,2013-11-30 19:00:00,
2013-11-30 14:05:00,30.7,11.4,30.47,ESE,120,0.0,1.0,44,0.00,,-RA,0.00,192.00,VWS V14.01,2013-11-30 19:05:00,
2013-11-30 14:10:00,30.6,10.8,30.47,SSE,151,0.0,8.0,43,0.00,,-RA,0.00,208.00,VWS V14.01,2013-11-30 19:10:00,
2013-11-30 14:15:00,31.0,11.1,30.47,SE,127,1.0,5.0,43,0.00,,-RA,0.00,243.00,VWS V14.01,2013-11-30 19:15:00,
2013-11-30 14:20:00,31.3,11.4,30.47,SSE,167,2.0,5.0,43,0.00,,-RA,0.00,238.00,VWS V14.01,2013-11-30 19:20:00,
2013-11-30 14:25:00,31.3,10.9,30.47,SE,130,3.0,3.0,42,0.00,,-RA,0.00,211.00,VWS V14.01,2013-11-30 19:25:00,
2013-11-30 14:30:00,31.3,10.9,30.47,SE,137,3.0,8.0,42,0.00,,-RA,0.00,239.00,VWS V14.01,2013-11-30 19:30:00,
2013-11-30 14:35:00,31.5,11.1,30.47,ESE,123,3.0,4.0,42,0.00,,-RA,0.00,188.00,VWS V14.01,2013-11-30 19:35:00,
2013-11-30 14:40:00,31.2,10.8,30.47,ESE,117,0.0,3.0,42,0.00,,-RA,0.00,171.00,VWS V14.01,2013-11-30 19:40:00,
2013-11-30 14:45:00,31.3,11.4,30.47,SE,128,2.0,5.0,43,0.00,,-RA,0.00,135.00,VWS V14.01,2013-11-30 19:45:00,
2013-11-30 14:50:00,31.3,11.4,30.45,SE,131,3.0,4.0,43,0.00,,-RA,0.00,118.00,VWS V14.01,2013-11-30 19:50:00,
2013-11-30 14:55:00,31.3,11.4,30.45,SE,124,0.0,3.0,43,0.00,,-RA,0.00,114.00,VWS V14.01,2013-11-30 19:55:00,
2013-11-30 15:00:00,31.3,11.4,30.45,SE,124,2.0,3.0,43,0.00,,-RA,0.00,120.00,VWS V14.01,2013-11-30 20:00:00,
2013-11-30 15:05:00,31.2,11.8,30.45,SE,140,3.0,6.0,44,0.00,,-RA,0.00,113.00,VWS V14.01,2013-11-30 20:05:00,
2013-11-30 15:10:00,31.0,12.2,30.45,South,174,6.0,8.0,45,0.00,,-RA,0.00,104.00,VWS V14.01,2013-11-30 20:10:00,
2013-11-30 15:15:00,31.0,13.1,30.45,SSE,164,3.0,6.0,47,0.00,,-RA,0.00,118.00,VWS V14.01,2013-11-30 20:15:00,
2013-11-30 15:20:00,31.2,13.8,30.45,South,169,2.0,8.0,48,0.00,,-RA,0.00,121.00,VWS V14.01,2013-11-30 20:20:00,
2013-11-30 15:25:00,31.2,13.8,30.45,SE,136,0.0,3.0,48,0.00,,-RA,0.00,99.00,VWS V14.01,2013-11-30 20:25:00,
2013-11-30 15:30:00,31.2,13.8,30.45,SE,138,0.0,0.0,48,0.00,,-RA,0.00,95.00,VWS V14.01,2013-11-30 20:30:00,
2013-11-30 15:35:00,31.5,14.6,30.44,South,172,0.0,7.0,49,0.00,,-RA,0.00,83.00,VWS V14.01,2013-11-30 20:35:00,
2013-11-30 15:40:00,31.3,14.4,30.44,SE,141,0.0,6.0,49,0.00,,-RA,0.00,74.00,VWS V14.01,2013-11-30 20:40:00,
2013-11-30 15:45:00,31.3,14.4,30.44,SE,140,0.0,0.0,49,0.00,,-RA,0.00,76.00,VWS V14.01,2013-11-30 20:45:00,
2013-11-30 15:50:00,31.2,14.7,30.44,East,92,4.0,4.0,50,0.00,,-RA,0.00,48.00,VWS V14.01,2013-11-30 20:50:00,
2013-11-30 15:55:00,31.2,15.2,30.44,SE,126,1.0,4.0,51,0.00,,-RA,0.00,33.00,VWS V14.01,2013-11-30 20:55:00,
2013-11-30 16:00:00,31.0,15.0,30.44,SE,133,1.0,4.0,51,0.00,,-RA,0.00,26.00,VWS V14.01,2013-11-30 21:00:00,
2013-11-30 16:05:00,30.9,15.4,30.44,SE,133,2.0,5.0,52,0.00,,-RA,0.00,16.00,VWS V14.01,2013-11-30 21:05:00,
2013-11-30 16:10:00,30.7,15.2,30.44,SE,133,0.0,0.0,52,0.00,,-RA,0.00,12.00,VWS V14.01,2013-11-30 21:10:00,
2013-11-30 16:15:00,30.7,15.6,30.44,SE,131,0.0,0.0,53,0.00,,-RA,0.00,9.00,VWS V14.01,2013-11-30 21:15:00,
2013-11-30 16:20:00,30.6,15.5,30.44,SE,131,0.0,0.0,53,0.00,,-RA,0.00,5.00,VWS V14.01,2013-11-30 21:20:00,
2013-11-30 16:25:00,30.6,15.5,30.44,SE,131,0.0,1.0,53,0.00,,-RA,0.00,0.00,VWS V14.01,2013-11-30 21:25:00,
2013-11-30 16:30:00,30.4,15.3,30.44,SE,131,0.0,0.0,53,0.00,,-RA,0.00,0.00,VWS V14.01,2013-11-30 21:30:00,
2013-11-30 16:35:00,30.3,15.7,30.43,SE,130,0.0,0.0,54,0.00,,-RA,0.00,0.00,VWS V14.01,2013-11-30 21:35:00,
2013-11-30 16:40:00,30.3,15.7,30.43,SE,130,0.0,0.0,54,0.00,,-RA,0.00,0.00,VWS V14.01,2013-11-30 21:40:00,
2013-11-30 16:45:00,30.3,16.1,30.43,SE,130,0.0,2.0,55,0.00,,-RA,0.00,0.00,VWS V14.01,2013-11-30 21:45:00,
2013-11-30 16:50:00,30.3,16.1,30.43,SE,130,0.0,0.0,55,0.00,,-RA,0.00,0.00,VWS V14.01,2013-11-30 21:50:00,
2013-11-30 16:55:00,30.1,15.9,30.43,SE,130,2.0,3.0,55,0.00,,-RA,0.00,0.00,VWS V14.01,2013-11-30 21:55:00,
2013-11-30 17:00:00,30.3,16.5,30.43,SE,128,0.0,3.0,56,0.00,,-RA,0.00,0.00,VWS V14.01,2013-11-30 22:00:00,
2013-11-30 17:05:00,30.1,16.3,30.42,SE,128,0.0,1.0,56,0.00,,-RA,0.00,0.00,VWS V14.01,2013-11-30 22:05:00,
2013-11-30 17:10:00,30.1,16.3,30.42,SE,128,0.0,0.0,56,0.00,,-RA,0.00,0.00,VWS V14.01,2013-11-30 22:10:00,
2013-11-30 17:15:00,30.1,16.7,30.42,SE,130,0.0,1.0,57,0.00,,-RA,0.00,0.00,VWS V14.01,2013-11-30 22:15:00,
2013-11-30 17:20:00,30.1,16.7,30.42,SE,128,0.0,0.0,57,0.00,,-RA,0.00,0.00,VWS V14.01,2013-11-30 22:20:00,
2013-11-30 17:25:00,30.1,16.7,30.42,SE,130,0.0,2.0,57,0.00,,-RA,0.00,0.00,VWS V14.01,2013-11-30 22:25:00,
2013-11-30 17:30:00,30.1,17.1,30.42,SE,128,0.0,0.0,58,0.00,,-RA,0.00,0.00,VWS V14.01,2013-11-30 22:30:00,
2013-11-30 17:35:00,30.1,17.1,30.41,SE,128,0.0,0.0,58,0.00,,-RA,0.00,0.00,VWS V14.01,2013-11-30 22:35:00,
2013-11-30 17:40:00,30.1,17.5,30.41,SE,130,0.0,0.0,59,0.00,,-RA,0.00,0.00,VWS V14.01,2013-11-30 22:40:00,
2013-11-30 17:44:00,30.1,17.5,30.41,SE,128,0.0,0.0,59,0.00,,-RA,0.00,0.00,VWS V14.01,2013-11-30 22:44:00,
2013-11-30 17:50:00,30.0,17.8,30.40,SE,128,0.0,0.0,60,0.00,,-RA,0.00,0.00,VWS V14.01,2013-11-30 22:50:00,
2013-11-30 17:55:00,30.0,17.8,30.40,SE,130,0.0,0.0,60,0.00,,-RA,0.00,0.00,VWS V14.01,2013-11-30 22:55:00,
2013-11-30 18:00:00,29.8,17.6,30.40,SE,130,0.0,0.0,60,0.00,,-RA,0.00,0.00,VWS V14.01,2013-11-30 23:00:00,
2013-11-30 18:04:00,29.8,17.6,30.40,SE,128,0.0,0.0,60,0.00,,-RA,0.00,0.00,VWS V14.01,2013-11-30 23:04:00,
2013-11-30 18:09:00,29.8,18.0,30.40,SE,128,0.0,0.0,61,0.00,,-RA,0.00,0.00,VWS V14.01,2013-11-30 23:09:00,
2013-11-30 18:14:00,29.8,18.0,30.40,SE,128,0.0,0.0,61,0.00,,-RA,0.00,0.00,VWS V14.01,2013-11-30 23:14:00,
2013-11-30 18:19:00,29.8,18.0,30.39,SE,130,0.0,0.0,61,0.00,,-RA,0.00,0.00,VWS V14.01,2013-11-30 23:19:00,
2013-11-30 18:24:00,30.0,18.2,30.39,SE,130,0.0,0.0,61,0.00,,-RA,0.00,0.00,VWS V14.01,2013-11-30 23:24:00,
2013-11-30 18:29:00,30.0,18.2,30.39,SE,128,0.0,0.0,61,0.00,,-RA,0.00,0.00,VWS V14.01,2013-11-30 23:29:00,
2013-11-30 18:34:00,30.0,18.6,30.38,SE,128,0.0,0.0,62,0.00,,-RA,0.00,0.00,VWS V14.01,2013-11-30 23:34:00,
2013-11-30 18:39:00,30.0,18.6,30.38,SE,128,0.0,0.0,62,0.00,,-RA,0.00,0.00,VWS V14.01,2013-11-30 23:39:00,
2013-11-30 18:44:00,30.0,18.6,30.38,SE,128,0.0,0.0,62,0.00,,-RA,0.00,0.00,VWS V14.01,2013-11-30 23:44:00,
2013-11-30 18:49:00,30.0,18.6,30.38,SE,130,0.0,0.0,62,0.00,,-RA,0.00,0.00,VWS V14.01,2013-11-30 23:49:00,
2013-11-30 18:54:00,30.1,18.7,30.38,SE,128,0.0,0.0,62,0.00,,-RA,0.00,0.00,VWS V14.01,2013-11-30 23:54:00,
2013-11-30 18:59:00,30.1,18.7,30.38,SE,128,0.0,0.0,62,0.00,,-RA,0.00,0.00,VWS V14.01,2013-11-30 23:59:00,
2013-11-30 19:04:00,30.1,18.7,30.37,SE,128,0.0,0.0,62,0.00,,-RA,0.00,0.00,VWS V14.01,2013-12-01 00:04:00,
2013-11-30 19:09:00,30.3,18.9,30.37,SE,128,0.0,0.0,62,0.00,,-RA,0.00,0.00,VWS V14.01,2013-12-01 00:09:00,
2013-11-30 19:14:00,30.3,18.9,30.37,SE,130,0.0,0.0,62,0.00,,-RA,0.00,0.00,VWS V14.01,2013-12-01 00:14:00,
2013-11-30 19:19:00,30.3,18.9,30.37,SE,128,0.0,0.0,62,0.00,,-RA,0.00,0.00,VWS V14.01,2013-12-01 00:19:00,
2013-11-30 19:24:00,30.3,18.9,30.37,SE,128,0.0,0.0,62,0.00,,-RA,0.00,0.00,VWS V14.01,2013-12-01 00:24:00,
2013-11-30 19:29:00,30.4,19.0,30.37,SE,128,0.0,0.0,62,0.00,,-RA,0.00,0.00,VWS V14.01,2013-12-01 00:29:00,
2013-11-30 19:34:00,30.4,19.0,30.37,SE,128,0.0,0.0,62,0.00,,-RA,0.00,0.00,VWS V14.01,2013-12-01 00:34:00,
2013-11-30 19:39:00,30.6,19.1,30.37,SE,128,0.0,0.0,62,0.00,,-RA,0.00,0.00,VWS V14.01,2013-12-01 00:39:00,
2013-11-30 19:44:00,30.6,19.1,30.37,SE,130,0.0,0.0,62,0.00,,-RA,0.00,0.00,VWS V14.01,2013-12-01 00:44:00,
2013-11-30 19:49:00,30.6,19.1,30.36,SE,128,0.0,0.0,62,0.00,,-RA,0.00,0.00,VWS V14.01,2013-12-01 00:49:00,
2013-11-30 19:54:00,30.6,19.5,30.36,SE,130,0.0,0.0,63,0.00,,-RA,0.00,0.00,VWS V14.01,2013-12-01 00:54:00,
2013-11-30 19:59:00,30.7,19.6,30.36,SE,130,0.0,0.0,63,0.00,,-RA,0.00,0.00,VWS V14.01,2013-12-01 00:59:00,
2013-11-30 20:04:00,30.7,19.6,30.36,SE,128,0.0,0.0,63,0.00,,-RA,0.00,0.00,VWS V14.01,2013-12-01 01:04:00,
2013-11-30 20:09:00,30.9,19.8,30.36,SE,128,0.0,0.0,63,0.00,,-RA,0.00,0.00,VWS V14.01,2013-12-01 01:09:00,
2013-11-30 20:14:00,30.7,19.2,30.36,SE,128,2.0,3.0,62,0.00,,-RA,0.00,0.00,VWS V14.01,2013-12-01 01:14:00,
2013-11-30 20:19:00,30.7,19.2,30.34,NE,42,2.0,3.0,62,0.00,,-RA,0.00,0.00,VWS V14.01,2013-12-01 01:19:00,
2013-11-30 20:24:00,30.6,18.8,30.34,NNE,25,0.0,3.0,61,0.00,,-RA,0.00,0.00,VWS V14.01,2013-12-01 01:24:00,
2013-11-30 20:29:00,30.6,18.4,30.34,North,11,3.0,5.0,60,0.00,,-RA,0.00,0.00,VWS V14.01,2013-12-01 01:29:00,
2013-11-30 20:34:00,30.6,18.4,30.34,North,11,2.0,3.0,60,0.00,,-RA,0.00,0.00,VWS V14.01,2013-12-01 01:34:00,
2013-11-30 20:39:00,30.4,17.8,30.34,North,11,1.0,2.0,59,0.00,,-RA,0.00,0.00,VWS V14.01,2013-12-01 01:39:00,
2013-11-30 20:43:00,30.4,17.8,30.34,North,11,5.0,6.0,59,0.00,,-RA,0.00,0.00,VWS V14.01,2013-12-01 01:43:00,
2013-11-30 20:48:00,30.4,17.4,30.34,North,11,2.0,3.0,58,0.00,,-RA,0.00,0.00,VWS V14.01,2013-12-01 01:48:00,
2013-11-30 20:53:00,30.4,17.0,30.34,North,11,3.0,5.0,57,0.00,,-RA,0.00,0.00,VWS V14.01,2013-12-01 01:53:00,
2013-11-30 20:58:00,30.4,16.6,30.34,North,11,4.0,5.0,56,0.00,,-RA,0.00,0.00,VWS V14.01,2013-12-01 01:58:00,
2013-11-30 21:03:00,30.6,16.8,30.33,NNE,13,1.0,2.0,56,0.00,,-RA,0.00,0.00,VWS V14.01,2013-12-01 02:03:00,
2013-11-30 21:08:00,30.4,15.8,30.33,NNE,13,0.0,1.0,54,0.00,,-RA,0.00,0.00,VWS V14.01,2013-12-01 02:08:00,
2013-11-30 21:13:00,30.4,16.2,30.33,North,11,0.0,2.0,55,0.00,,-RA,0.00,0.00,VWS V14.01,2013-12-01 02:13:00,
2013-11-30 21:18:00,30.4,15.8,30.33,North,11,0.0,1.0,54,0.00,,-RA,0.00,0.00,VWS V14.01,2013-12-01 02:18:00,
2013-11-30 21:23:00,30.4,15.3,30.33,North,11,1.0,3.0,53,0.00,,-RA,0.00,0.00,VWS V14.01,2013-12-01 02:23:00,
2013-11-30 21:28:00,30.4,15.3,30.33,NNE,13,2.0,3.0,53,0.00,,-RA,0.00,0.00,VWS V14.01,2013-12-01 02:28:00,
2013-11-30 21:33:00,30.4,14.4,30.33,North,11,4.0,5.0,51,0.00,,-RA,0.00,0.00,VWS V14.01,2013-12-01 02:33:00,
2013-11-30 21:38:00,30.4,14.4,30.33,NNE,13,4.0,5.0,51,0.00,,-RA,0.00,0.00,VWS V14.01,2013-12-01 02:38:00,
2013-11-30 21:43:00,30.4,14.9,30.33,NNE,13,0.0,2.0,52,0.00,,-RA,0.00,0.00,VWS V14.01,2013-12-01 02:43:00,
2013-11-30 21:48:00,30.4,14.9,30.32,North,11,0.0,0.0,52,0.00,,-RA,0.00,0.00,VWS V14.01,2013-12-01 02:48:00,
2013-11-30 21:53:00,30.6,15.1,30.32,North,11,0.0,0.0,52,0.00,,-RA,0.00,0.00,VWS V14.01,2013-12-01 02:53:00,
2013-11-30 21:58:00,30.4,14.4,30.32,North,11,0.0,0.0,51,0.00,,-RA,0.00,0.00,VWS V14.01,2013-12-01 02:58:00,
2013-11-30 22:03:00,30.4,14.4,30.32,North,11,0.0,0.0,51,0.00,,-RA,0.00,0.00,VWS V14.01,2013-12-01 03:03:00,
2013-11-30 22:08:00,30.4,14.4,30.32,North,11,0.0,0.0,51,0.00,,-RA,0.00,0.00,VWS V14.01,2013-12-01 03:08:00,
2013-11-30 22:13:00,30.4,14.4,30.32,North,11,0.0,0.0,51,0.00,,-RA,0.00,0.00,VWS V14.01,2013-12-01 03:13:00,
2013-11-30 22:17:00,30.4,14.4,30.31,North,11,0.0,0.0,51,0.00,,-RA,0.00,0.00,VWS V14.01,2013-12-01 03:17:00,
2013-11-30 22:23:00,30.6,15.1,30.31,North,11,0.0,0.0,52,0.00,,-RA,0.00,0.00,VWS V14.01,2013-12-01 03:23:00,
2013-11-30 22:28:00,30.6,14.6,30.31,NNE,13,0.0,0.0,51,0.00,,-RA,0.00,0.00,VWS V14.01,2013-12-01 03:28:00,
2013-11-30 22:33:00,30.6,14.6,30.30,North,11,0.0,0.0,51,0.00,,-RA,0.00,0.00,VWS V14.01,2013-12-01 03:33:00,
2013-11-30 22:37:00,30.6,15.1,30.30,North,11,0.0,0.0,52,0.00,,-RA,0.00,0.00,VWS V14.01,2013-12-01 03:37:00,
2013-11-30 22:42:00,30.6,15.1,30.30,North,11,0.0,2.0,52,0.00,,-RA,0.00,0.00,VWS V14.01,2013-12-01 03:42:00,
2013-11-30 22:47:00,30.6,15.1,30.29,North,11,1.0,3.0,52,0.00,,-RA,0.00,0.00,VWS V14.01,2013-12-01 03:47:00,
2013-11-30 22:52:00,30.6,15.1,30.29,NNE,13,3.0,4.0,52,0.00,,-RA,0.00,0.00,VWS V14.01,2013-12-01 03:52:00,
2013-11-30 22:57:00,30.6,15.5,30.29,North,11,2.0,2.0,53,0.00,,-RA,0.00,0.00,VWS V14.01,2013-12-01 03:57:00,
2013-11-30 23:02:00,30.6,15.5,30.29,North,11,3.0,5.0,53,0.00,,-RA,0.00,0.00,VWS V14.01,2013-12-01 04:02:00,
2013-11-30 23:07:00,30.7,15.6,30.29,North,11,1.0,5.0,53,0.00,,-RA,0.00,0.00,VWS V14.01,2013-12-01 04:07:00,
2013-11-30 23:12:00,30.7,15.6,30.29,North,11,0.0,0.0,53,0.00,,-RA,0.00,0.00,VWS V14.01,2013-12-01 04:12:00,
2013-11-30 23:17:00,30.6,15.9,30.28,North,11,2.0,4.0,54,0.00,,-RA,0.00,0.00,VWS V14.01,2013-12-01 04:17:00,
2013-11-30 23:22:00,30.7,16.0,30.28,North,11,4.0,6.0,54,0.00,,-RA,0.00,0.00,VWS V14.01,2013-12-01 04:22:00,
2013-11-30 23:27:00,30.6,15.9,30.28,NNE,13,0.0,0.0,54,0.00,,-RA,0.00,0.00,VWS V14.01,2013-12-01 04:27:00,
2013-11-30 23:32:00,30.4,15.3,30.27,North,11,0.0,0.0,53,0.00,,-RA,0.00,0.00,VWS V14.01,2013-12-01 04:32:00,
2013-11-30 23:37:00,30.3,15.2,30.27,North,11,0.0,0.0,53,0.00,,-RA,0.00,0.00,VWS V14.01,2013-12-01 04:37:00,
2013-11-30 23:42:00,30.3,15.2,30.27,North,11,0.0,0.0,53,0.00,,-RA,0.00,0.00,VWS V14.01,2013-12-01 04:42:00,
2013-11-30 23:47:00,30.3,15.2,30.26,North,11,0.0,0.0,53,0.00,,-RA,0.00,0.00,VWS V14.01,2013-12-01 04:47:00,
2013-11-30 23:52:00,30.3,15.2,30.26,NNE,13,0.0,0.0,53,0.00,,-RA,0.00,0.00,VWS V14.01,2013-12-01 04:52:00,
2013-11-30 23:57:00,30.3,15.7,30.26,NNE,13,3.0,3.0,54,0.00,,-RA,0.00,0.00,VWS V14.01,2013-12-01 04:57:00,